Time;durP1;ratioP1;P1;durP2;ratioP2;P2;SDS_P1;SDS_P2;PMS_P1;PMS_P2;Temp;Humidity;BMP_temperature;BMP_pressure;BME280_temperature;BME280_humidity;BME280_pressure;Samples;Min_cycle;Max_cycle;Signal;HPM_P1;HPM_P2
2022/03/05 00:00:08;;;;;;;18;11.6;;;;;;;-3.78;38.5957;95288.47;;;;
2022/03/05 00:01:09;;;;;;;18;11.6;;;;;;;-3.78;38.5957;95288.47;;;;
2022/03/05 00:02:10;;;;;;;18;11.6;;;;;;;-3.78;38.5957;95288.47;;;;
2022/03/05 00:03:10;;;;;;;18;11.6;;;;;;;-3.78;38.5957;95288.47;;;;
2022/03/05 00:04:13;;;;;;;18;11.6;;;;;;;-3.78;38.5957;95288.47;;;;
2022/03/05 00:05:13;;;;;;;18;11.6;;;;;;;-3.78;38.5957;95288.47;;;;
2022/03/05 00:06:14;;;;;;;18;11.6;;;;;;;-3.78;38.5957;95288.47;;;;
2022/03/05 00:07:15;;;;;;;18;11.6;;;;;;;-3.78;38.5957;95288.47;;;;
2022/03/05 00:08:16;;;;;;;18;11.6;;;;;;;-3.78;38.5957;95288.47;;;;
2022/03/05 00:09:17;;;;;;;20.9;11.95;;;;;;;-3.84;39.24805;95278.09;;;;
2022/03/05 00:10:19;;;;;;;20.9;11.95;;;;;;;-3.84;39.24805;95278.09;;;;
2022/03/05 00:11:19;;;;;;;20.9;11.95;;;;;;;-3.84;39.24805;95278.09;;;;
2022/03/05 00:12:20;;;;;;;20.9;11.95;;;;;;;-3.84;39.24805;95278.09;;;;
2022/03/05 00:13:20;;;;;;;20.9;11.95;;;;;;;-3.84;39.24805;95278.09;;;;
2022/03/05 00:14:21;;;;;;;20.9;11.95;;;;;;;-3.84;39.24805;95278.09;;;;
2022/03/05 00:15:23;;;;;;;20.9;11.95;;;;;;;-3.84;39.24805;95278.09;;;;
2022/03/05 00:16:24;;;;;;;20.9;11.95;;;;;;;-3.84;39.24805;95278.09;;;;
2022/03/05 00:17:25;;;;;;;20.9;11.95;;;;;;;-3.84;39.24805;95278.09;;;;
2022/03/05 00:18:25;;;;;;;20.9;11.95;;;;;;;-3.84;39.24805;95278.09;;;;
2022/03/05 00:19:26;;;;;;;20.9;11.95;;;;;;;-3.84;39.24805;95278.09;;;;
2022/03/05 00:20:26;;;;;;;20.75;13.05;;;;;;;-3.92;39.84668;95281.56;;;;
2022/03/05 00:21:27;;;;;;;20.75;13.05;;;;;;;-3.92;39.84668;95281.56;;;;
2022/03/05 00:22:27;;;;;;;20.75;13.05;;;;;;;-3.92;39.84668;95281.56;;;;
2022/03/05 00:23:28;;;;;;;20.75;13.05;;;;;;;-3.92;39.84668;95281.56;;;;
2022/03/05 00:24:28;;;;;;;20.75;13.05;;;;;;;-3.92;39.84668;95281.56;;;;
2022/03/05 00:25:29;;;;;;;20.75;13.05;;;;;;;-3.92;39.84668;95281.56;;;;
2022/03/05 00:26:29;;;;;;;20.75;13.05;;;;;;;-3.92;39.84668;95281.56;;;;
2022/03/05 00:27:30;;;;;;;20.75;13.05;;;;;;;-3.92;39.84668;95281.56;;;;
2022/03/05 00:28:31;;;;;;;20.75;13.05;;;;;;;-3.92;39.84668;95281.56;;;;
2022/03/05 00:29:31;;;;;;;20.75;13.05;;;;;;;-3.92;39.84668;95281.56;;;;
2022/03/05 00:30:32;;;;;;;22;13.2;;;;;;;-4.01;40.39258;95282.35;;;;
2022/03/05 00:31:32;;;;;;;22;13.2;;;;;;;-4.01;40.39258;95282.35;;;;
2022/03/05 00:32:33;;;;;;;22;13.2;;;;;;;-4.01;40.39258;95282.35;;;;
2022/03/05 00:33:33;;;;;;;22;13.2;;;;;;;-4.01;40.39258;95282.35;;;;
2022/03/05 00:34:34;;;;;;;22;13.2;;;;;;;-4.01;40.39258;95282.35;;;;
2022/03/05 00:35:35;;;;;;;22;13.2;;;;;;;-4.01;40.39258;95282.35;;;;
2022/03/05 00:36:37;;;;;;;22;13.2;;;;;;;-4.01;40.39258;95282.35;;;;
2022/03/05 00:37:38;;;;;;;22;13.2;;;;;;;-4.01;40.39258;95282.35;;;;
2022/03/05 00:38:39;;;;;;;22;13.2;;;;;;;-4.01;40.39258;95282.35;;;;
2022/03/05 00:39:39;;;;;;;22;13.2;;;;;;;-4.01;40.39258;95282.35;;;;
2022/03/05 00:40:41;;;;;;;22;13.2;;;;;;;-4.01;40.39258;95282.35;;;;
2022/03/05 00:41:41;;;;;;;20.85;13.3;;;;;;;-4.1;40.85352;95283.23;;;;
2022/03/05 00:42:42;;;;;;;20.85;13.3;;;;;;;-4.1;40.85352;95283.23;;;;
2022/03/05 00:43:42;;;;;;;20.85;13.3;;;;;;;-4.1;40.85352;95283.23;;;;
2022/03/05 00:44:43;;;;;;;20.85;13.3;;;;;;;-4.1;40.85352;95283.23;;;;
2022/03/05 00:45:43;;;;;;;20.85;13.3;;;;;;;-4.1;40.85352;95283.23;;;;
2022/03/05 00:46:44;;;;;;;20.85;13.3;;;;;;;-4.1;40.85352;95283.23;;;;
2022/03/05 00:47:44;;;;;;;20.85;13.3;;;;;;;-4.1;40.85352;95283.23;;;;
2022/03/05 00:48:45;;;;;;;20.85;13.3;;;;;;;-4.1;40.85352;95283.23;;;;
2022/03/05 00:49:45;;;;;;;20.85;13.3;;;;;;;-4.1;40.85352;95283.23;;;;
2022/03/05 00:50:46;;;;;;;20.85;13.3;;;;;;;-4.1;40.85352;95283.23;;;;
2022/03/05 00:51:46;;;;;;;20.75;13.05;;;;;;;-4.19;41.35547;95281.58;;;;
2022/03/05 00:52:47;;;;;;;20.75;13.05;;;;;;;-4.19;41.35547;95281.58;;;;
2022/03/05 00:53:47;;;;;;;20.75;13.05;;;;;;;-4.19;41.35547;95281.58;;;;
2022/03/05 00:54:48;;;;;;;20.75;13.05;;;;;;;-4.19;41.35547;95281.58;;;;
2022/03/05 00:55:49;;;;;;;20.75;13.05;;;;;;;-4.19;41.35547;95281.58;;;;
2022/03/05 00:56:49;;;;;;;20.75;13.05;;;;;;;-4.19;41.35547;95281.58;;;;
2022/03/05 00:57:50;;;;;;;20.75;13.05;;;;;;;-4.19;41.35547;95281.58;;;;
2022/03/05 00:58:50;;;;;;;20.75;13.05;;;;;;;-4.19;41.35547;95281.58;;;;
2022/03/05 00:59:51;;;;;;;20.75;13.05;;;;;;;-4.19;41.35547;95281.58;;;;
2022/03/05 01:00:52;;;;;;;20.75;13.05;;;;;;;-4.19;41.35547;95281.58;;;;
2022/03/05 01:01:53;;;;;;;20.75;13.05;;;;;;;-4.19;41.35547;95281.58;;;;
2022/03/05 01:02:53;;;;;;;22.3;13.5;;;;;;;-4.33;41.92676;95269.28;;;;
2022/03/05 01:03:54;;;;;;;22.3;13.5;;;;;;;-4.33;41.92676;95269.28;;;;
2022/03/05 01:04:54;;;;;;;22.3;13.5;;;;;;;-4.33;41.92676;95269.28;;;;
2022/03/05 01:05:55;;;;;;;22.3;13.5;;;;;;;-4.33;41.92676;95269.28;;;;
2022/03/05 01:06:56;;;;;;;22.3;13.5;;;;;;;-4.33;41.92676;95269.28;;;;
2022/03/05 01:07:56;;;;;;;22.3;13.5;;;;;;;-4.33;41.92676;95269.28;;;;
2022/03/05 01:08:57;;;;;;;22.3;13.5;;;;;;;-4.33;41.92676;95269.28;;;;
2022/03/05 01:09:58;;;;;;;22.3;13.5;;;;;;;-4.33;41.92676;95269.28;;;;
2022/03/05 01:10:58;;;;;;;22.3;13.5;;;;;;;-4.33;41.92676;95269.28;;;;
2022/03/05 01:11:59;;;;;;;22.3;13.5;;;;;;;-4.33;41.92676;95269.28;;;;
2022/03/05 01:13:00;;;;;;;22.3;13.5;;;;;;;-4.33;41.92676;95269.28;;;;
2022/03/05 01:14:01;;;;;;;21.75;13.55;;;;;;;-4.43;42.51074;95264.98;;;;
2022/03/05 01:15:01;;;;;;;21.75;13.55;;;;;;;-4.43;42.51074;95264.98;;;;
2022/03/05 01:16:04;;;;;;;21.75;13.55;;;;;;;-4.43;42.51074;95264.98;;;;
2022/03/05 01:17:04;;;;;;;21.75;13.55;;;;;;;-4.43;42.51074;95264.98;;;;
2022/03/05 01:18:05;;;;;;;21.75;13.55;;;;;;;-4.43;42.51074;95264.98;;;;
2022/03/05 01:19:06;;;;;;;21.75;13.55;;;;;;;-4.43;42.51074;95264.98;;;;
2022/03/05 01:20:07;;;;;;;21.75;13.55;;;;;;;-4.43;42.51074;95264.98;;;;
2022/03/05 01:21:09;;;;;;;21.75;13.55;;;;;;;-4.43;42.51074;95264.98;;;;
2022/03/05 01:22:10;;;;;;;21.75;13.55;;;;;;;-4.43;42.51074;95264.98;;;;
2022/03/05 01:23:10;;;;;;;21.75;13.55;;;;;;;-4.43;42.51074;95264.98;;;;
2022/03/05 01:24:11;;;;;;;24.05;14.6;;;;;;;-4.5;43.01367;95269.17;;;;
2022/03/05 01:25:11;;;;;;;24.05;14.6;;;;;;;-4.5;43.01367;95269.17;;;;
2022/03/05 01:26:12;;;;;;;24.05;14.6;;;;;;;-4.5;43.01367;95269.17;;;;
2022/03/05 01:27:13;;;;;;;24.05;14.6;;;;;;;-4.5;43.01367;95269.17;;;;
2022/03/05 01:28:14;;;;;;;24.05;14.6;;;;;;;-4.5;43.01367;95269.17;;;;
2022/03/05 01:29:14;;;;;;;24.05;14.6;;;;;;;-4.5;43.01367;95269.17;;;;
2022/03/05 01:30:15;;;;;;;24.05;14.6;;;;;;;-4.5;43.01367;95269.17;;;;
2022/03/05 01:31:15;;;;;;;24.05;14.6;;;;;;;-4.5;43.01367;95269.17;;;;
2022/03/05 01:32:16;;;;;;;24.05;14.6;;;;;;;-4.5;43.01367;95269.17;;;;
2022/03/05 01:33:17;;;;;;;24.05;14.6;;;;;;;-4.5;43.01367;95269.17;;;;
2022/03/05 01:34:18;;;;;;;24.05;14.6;;;;;;;-4.5;43.01367;95269.17;;;;
2022/03/05 01:35:18;;;;;;;23.2;13.95;;;;;;;-4.57;43.42285;95263.73;;;;
2022/03/05 01:36:19;;;;;;;23.2;13.95;;;;;;;-4.57;43.42285;95263.73;;;;
2022/03/05 01:37:20;;;;;;;23.2;13.95;;;;;;;-4.57;43.42285;95263.73;;;;
2022/03/05 01:38:20;;;;;;;23.2;13.95;;;;;;;-4.57;43.42285;95263.73;;;;
2022/03/05 01:39:21;;;;;;;23.2;13.95;;;;;;;-4.57;43.42285;95263.73;;;;
2022/03/05 01:40:21;;;;;;;23.2;13.95;;;;;;;-4.57;43.42285;95263.73;;;;
2022/03/05 01:41:22;;;;;;;23.2;13.95;;;;;;;-4.57;43.42285;95263.73;;;;
2022/03/05 01:42:22;;;;;;;23.2;13.95;;;;;;;-4.57;43.42285;95263.73;;;;
2022/03/05 01:43:23;;;;;;;23.2;13.95;;;;;;;-4.57;43.42285;95263.73;;;;
2022/03/05 01:44:24;;;;;;;23.2;13.95;;;;;;;-4.57;43.42285;95263.73;;;;
2022/03/05 01:45:25;;;;;;;21.5;13.9;;;;;;;-4.64;43.84473;95259.93;;;;
2022/03/05 01:46:26;;;;;;;21.5;13.9;;;;;;;-4.64;43.84473;95259.93;;;;
2022/03/05 01:47:28;;;;;;;21.5;13.9;;;;;;;-4.64;43.84473;95259.93;;;;
2022/03/05 01:48:29;;;;;;;21.5;13.9;;;;;;;-4.64;43.84473;95259.93;;;;
2022/03/05 01:49:29;;;;;;;21.5;13.9;;;;;;;-4.64;43.84473;95259.93;;;;
2022/03/05 01:50:30;;;;;;;21.5;13.9;;;;;;;-4.64;43.84473;95259.93;;;;
2022/03/05 01:51:31;;;;;;;21.5;13.9;;;;;;;-4.64;43.84473;95259.93;;;;
2022/03/05 01:52:32;;;;;;;21.5;13.9;;;;;;;-4.64;43.84473;95259.93;;;;
2022/03/05 01:53:32;;;;;;;21.5;13.9;;;;;;;-4.64;43.84473;95259.93;;;;
2022/03/05 01:54:33;;;;;;;21.5;13.9;;;;;;;-4.64;43.84473;95259.93;;;;
2022/03/05 01:55:34;;;;;;;21.5;13.9;;;;;;;-4.64;43.84473;95259.93;;;;
2022/03/05 01:56:34;;;;;;;23;14.5;;;;;;;-4.67;44.27734;95253.7;;;;
2022/03/05 01:57:37;;;;;;;23;14.5;;;;;;;-4.67;44.27734;95253.7;;;;
2022/03/05 01:58:38;;;;;;;23;14.5;;;;;;;-4.67;44.27734;95253.7;;;;
2022/03/05 01:59:39;;;;;;;23;14.5;;;;;;;-4.67;44.27734;95253.7;;;;
2022/03/05 02:00:39;;;;;;;23;14.5;;;;;;;-4.67;44.27734;95253.7;;;;
2022/03/05 02:01:40;;;;;;;23;14.5;;;;;;;-4.67;44.27734;95253.7;;;;
2022/03/05 02:02:40;;;;;;;23;14.5;;;;;;;-4.67;44.27734;95253.7;;;;
2022/03/05 02:03:43;;;;;;;23;14.5;;;;;;;-4.67;44.27734;95253.7;;;;
2022/03/05 02:04:44;;;;;;;23;14.5;;;;;;;-4.67;44.27734;95253.7;;;;
2022/03/05 02:05:44;;;;;;;23;14.5;;;;;;;-4.67;44.27734;95253.7;;;;
2022/03/05 02:06:45;;;;;;;24.7;14.95;;;;;;;-4.58;44.73535;95258.04;;;;
2022/03/05 02:07:46;;;;;;;24.7;14.95;;;;;;;-4.58;44.73535;95258.04;;;;
2022/03/05 02:08:47;;;;;;;24.7;14.95;;;;;;;-4.58;44.73535;95258.04;;;;
2022/03/05 02:09:49;;;;;;;24.7;14.95;;;;;;;-4.58;44.73535;95258.04;;;;
2022/03/05 02:10:50;;;;;;;24.7;14.95;;;;;;;-4.58;44.73535;95258.04;;;;
2022/03/05 02:11:51;;;;;;;24.7;14.95;;;;;;;-4.58;44.73535;95258.04;;;;
2022/03/05 02:12:51;;;;;;;24.7;14.95;;;;;;;-4.58;44.73535;95258.04;;;;
2022/03/05 02:13:52;;;;;;;24.7;14.95;;;;;;;-4.58;44.73535;95258.04;;;;
2022/03/05 02:14:54;;;;;;;24.7;14.95;;;;;;;-4.58;44.73535;95258.04;;;;
2022/03/05 02:15:54;;;;;;;24.7;14.95;;;;;;;-4.58;44.73535;95258.04;;;;
2022/03/05 02:16:55;;;;;;;24.7;14.95;;;;;;;-4.58;44.73535;95258.04;;;;
2022/03/05 02:17:56;;;;;;;24.8;15.5;;;;;;;-4.51;45.23242;95251.28;;;;
2022/03/05 02:18:56;;;;;;;24.8;15.5;;;;;;;-4.51;45.23242;95251.28;;;;
2022/03/05 02:19:57;;;;;;;24.8;15.5;;;;;;;-4.51;45.23242;95251.28;;;;
2022/03/05 02:20:58;;;;;;;24.8;15.5;;;;;;;-4.51;45.23242;95251.28;;;;
2022/03/05 02:21:58;;;;;;;24.8;15.5;;;;;;;-4.51;45.23242;95251.28;;;;
2022/03/05 02:22:59;;;;;;;24.8;15.5;;;;;;;-4.51;45.23242;95251.28;;;;
2022/03/05 02:23:59;;;;;;;24.8;15.5;;;;;;;-4.51;45.23242;95251.28;;;;
2022/03/05 02:25:02;;;;;;;24.8;15.5;;;;;;;-4.51;45.23242;95251.28;;;;
2022/03/05 02:26:03;;;;;;;24.8;15.5;;;;;;;-4.51;45.23242;95251.28;;;;
2022/03/05 02:27:04;;;;;;;24.8;15.5;;;;;;;-4.51;45.23242;95251.28;;;;
2022/03/05 02:28:07;;;;;;;25.45;15.25;;;;;;;-4.38;45.77832;95249.56;;;;
2022/03/05 02:29:09;;;;;;;25.45;15.25;;;;;;;-4.38;45.77832;95249.56;;;;
2022/03/05 02:30:09;;;;;;;25.45;15.25;;;;;;;-4.38;45.77832;95249.56;;;;
2022/03/05 02:31:10;;;;;;;25.45;15.25;;;;;;;-4.38;45.77832;95249.56;;;;
2022/03/05 02:32:11;;;;;;;25.45;15.25;;;;;;;-4.38;45.77832;95249.56;;;;
2022/03/05 02:33:12;;;;;;;25.45;15.25;;;;;;;-4.38;45.77832;95249.56;;;;
2022/03/05 02:34:13;;;;;;;25.45;15.25;;;;;;;-4.38;45.77832;95249.56;;;;
2022/03/05 02:35:14;;;;;;;25.45;15.25;;;;;;;-4.38;45.77832;95249.56;;;;
2022/03/05 02:36:15;;;;;;;25.45;15.25;;;;;;;-4.38;45.77832;95249.56;;;;
2022/03/05 02:37:15;;;;;;;25.45;15.25;;;;;;;-4.38;45.77832;95249.56;;;;
2022/03/05 02:38:17;;;;;;;25.45;15.25;;;;;;;-4.38;45.77832;95249.56;;;;
2022/03/05 02:39:19;;;;;;;25.3;15.7;;;;;;;-4.23;46.19043;95252.95;;;;
2022/03/05 02:40:20;;;;;;;25.3;15.7;;;;;;;-4.23;46.19043;95252.95;;;;
2022/03/05 02:41:20;;;;;;;25.3;15.7;;;;;;;-4.23;46.19043;95252.95;;;;
2022/03/05 02:42:21;;;;;;;25.3;15.7;;;;;;;-4.23;46.19043;95252.95;;;;
2022/03/05 02:43:22;;;;;;;25.3;15.7;;;;;;;-4.23;46.19043;95252.95;;;;
2022/03/05 02:44:23;;;;;;;25.3;15.7;;;;;;;-4.23;46.19043;95252.95;;;;
2022/03/05 02:45:24;;;;;;;25.3;15.7;;;;;;;-4.23;46.19043;95252.95;;;;
2022/03/05 02:46:24;;;;;;;25.3;15.7;;;;;;;-4.23;46.19043;95252.95;;;;
2022/03/05 02:47:25;;;;;;;25.3;15.7;;;;;;;-4.23;46.19043;95252.95;;;;
2022/03/05 02:48:26;;;;;;;25.3;15.7;;;;;;;-4.23;46.19043;95252.95;;;;
2022/03/05 02:49:26;;;;;;;25.7;16.15;;;;;;;-4.15;46.42773;95234.16;;;;
2022/03/05 02:50:27;;;;;;;25.7;16.15;;;;;;;-4.15;46.42773;95234.16;;;;
2022/03/05 02:51:28;;;;;;;25.7;16.15;;;;;;;-4.15;46.42773;95234.16;;;;
2022/03/05 02:52:28;;;;;;;25.7;16.15;;;;;;;-4.15;46.42773;95234.16;;;;
2022/03/05 02:53:29;;;;;;;25.7;16.15;;;;;;;-4.15;46.42773;95234.16;;;;
2022/03/05 02:54:30;;;;;;;25.7;16.15;;;;;;;-4.15;46.42773;95234.16;;;;
2022/03/05 02:55:30;;;;;;;25.7;16.15;;;;;;;-4.15;46.42773;95234.16;;;;
2022/03/05 02:56:31;;;;;;;25.7;16.15;;;;;;;-4.15;46.42773;95234.16;;;;
2022/03/05 02:57:32;;;;;;;25.7;16.15;;;;;;;-4.15;46.42773;95234.16;;;;
2022/03/05 02:58:33;;;;;;;25.7;16.15;;;;;;;-4.15;46.42773;95234.16;;;;
2022/03/05 02:59:33;;;;;;;25.7;16.15;;;;;;;-4.15;46.42773;95234.16;;;;
2022/03/05 03:00:34;;;;;;;26.3;16.5;;;;;;;-4.18;46.58105;95230.93;;;;
2022/03/05 03:01:35;;;;;;;26.3;16.5;;;;;;;-4.18;46.58105;95230.93;;;;
2022/03/05 03:02:35;;;;;;;26.3;16.5;;;;;;;-4.18;46.58105;95230.93;;;;
2022/03/05 03:03:36;;;;;;;26.3;16.5;;;;;;;-4.18;46.58105;95230.93;;;;
2022/03/05 03:04:37;;;;;;;26.3;16.5;;;;;;;-4.18;46.58105;95230.93;;;;
2022/03/05 03:05:37;;;;;;;26.3;16.5;;;;;;;-4.18;46.58105;95230.93;;;;
2022/03/05 03:06:38;;;;;;;26.3;16.5;;;;;;;-4.18;46.58105;95230.93;;;;
2022/03/05 03:07:38;;;;;;;26.3;16.5;;;;;;;-4.18;46.58105;95230.93;;;;
2022/03/05 03:08:39;;;;;;;26.3;16.5;;;;;;;-4.18;46.58105;95230.93;;;;
2022/03/05 03:09:40;;;;;;;26.3;16.5;;;;;;;-4.18;46.58105;95230.93;;;;
2022/03/05 03:10:40;;;;;;;25.55;15.75;;;;;;;-4.35;46.95801;95217.25;;;;
2022/03/05 03:11:41;;;;;;;25.55;15.75;;;;;;;-4.35;46.95801;95217.25;;;;
2022/03/05 03:12:42;;;;;;;25.55;15.75;;;;;;;-4.35;46.95801;95217.25;;;;
2022/03/05 03:13:43;;;;;;;25.55;15.75;;;;;;;-4.35;46.95801;95217.25;;;;
2022/03/05 03:14:43;;;;;;;25.55;15.75;;;;;;;-4.35;46.95801;95217.25;;;;
2022/03/05 03:15:44;;;;;;;25.55;15.75;;;;;;;-4.35;46.95801;95217.25;;;;
2022/03/05 03:16:44;;;;;;;25.55;15.75;;;;;;;-4.35;46.95801;95217.25;;;;
2022/03/05 03:17:45;;;;;;;25.55;15.75;;;;;;;-4.35;46.95801;95217.25;;;;
2022/03/05 03:18:47;;;;;;;25.55;15.75;;;;;;;-4.35;46.95801;95217.25;;;;
2022/03/05 03:19:47;;;;;;;25.55;15.75;;;;;;;-4.35;46.95801;95217.25;;;;
2022/03/05 03:20:48;;;;;;;25.55;15.75;;;;;;;-4.35;46.95801;95217.25;;;;
2022/03/05 03:21:49;;;;;;;27.05;16.6;;;;;;;-4.43;47.25293;95211.81;;;;
2022/03/05 03:22:49;;;;;;;27.05;16.6;;;;;;;-4.43;47.25293;95211.81;;;;
2022/03/05 03:23:50;;;;;;;27.05;16.6;;;;;;;-4.43;47.25293;95211.81;;;;
2022/03/05 03:24:51;;;;;;;27.05;16.6;;;;;;;-4.43;47.25293;95211.81;;;;
2022/03/05 03:25:51;;;;;;;27.05;16.6;;;;;;;-4.43;47.25293;95211.81;;;;
2022/03/05 03:26:52;;;;;;;27.05;16.6;;;;;;;-4.43;47.25293;95211.81;;;;
2022/03/05 03:27:53;;;;;;;27.05;16.6;;;;;;;-4.43;47.25293;95211.81;;;;
2022/03/05 03:28:54;;;;;;;27.05;16.6;;;;;;;-4.43;47.25293;95211.81;;;;
2022/03/05 03:29:54;;;;;;;27.05;16.6;;;;;;;-4.43;47.25293;95211.81;;;;
2022/03/05 03:30:55;;;;;;;27.05;16.6;;;;;;;-4.43;47.25293;95211.81;;;;
2022/03/05 03:31:55;;;;;;;26.35;16.1;;;;;;;-4.52;47.46973;95223.29;;;;
2022/03/05 03:32:56;;;;;;;26.35;16.1;;;;;;;-4.52;47.46973;95223.29;;;;
2022/03/05 03:33:56;;;;;;;26.35;16.1;;;;;;;-4.52;47.46973;95223.29;;;;
2022/03/05 03:34:57;;;;;;;26.35;16.1;;;;;;;-4.52;47.46973;95223.29;;;;
2022/03/05 03:35:57;;;;;;;26.35;16.1;;;;;;;-4.52;47.46973;95223.29;;;;
2022/03/05 03:36:58;;;;;;;26.35;16.1;;;;;;;-4.52;47.46973;95223.29;;;;
2022/03/05 03:37:58;;;;;;;26.35;16.1;;;;;;;-4.52;47.46973;95223.29;;;;
2022/03/05 03:38:59;;;;;;;26.35;16.1;;;;;;;-4.52;47.46973;95223.29;;;;
2022/03/05 03:39:59;;;;;;;26.35;16.1;;;;;;;-4.52;47.46973;95223.29;;;;
2022/03/05 03:41:02;;;;;;;26.35;16.1;;;;;;;-4.52;47.46973;95223.29;;;;
2022/03/05 03:42:03;;;;;;;26.35;16.1;;;;;;;-4.52;47.46973;95223.29;;;;
2022/03/05 03:43:04;;;;;;;30.1;16.75;;;;;;;-4.73;47.7793;95212.59;;;;
2022/03/05 03:44:04;;;;;;;30.1;16.75;;;;;;;-4.73;47.7793;95212.59;;;;
2022/03/05 03:45:05;;;;;;;30.1;16.75;;;;;;;-4.73;47.7793;95212.59;;;;
2022/03/05 03:46:07;;;;;;;30.1;16.75;;;;;;;-4.73;47.7793;95212.59;;;;
2022/03/05 03:47:08;;;;;;;30.1;16.75;;;;;;;-4.73;47.7793;95212.59;;;;
2022/03/05 03:48:09;;;;;;;30.1;16.75;;;;;;;-4.73;47.7793;95212.59;;;;
2022/03/05 03:49:09;;;;;;;30.1;16.75;;;;;;;-4.73;47.7793;95212.59;;;;
2022/03/05 03:50:10;;;;;;;30.1;16.75;;;;;;;-4.73;47.7793;95212.59;;;;
2022/03/05 03:51:13;;;;;;;30.1;16.75;;;;;;;-4.73;47.7793;95212.59;;;;
2022/03/05 03:52:13;;;;;;;30.1;16.75;;;;;;;-4.73;47.7793;95212.59;;;;
2022/03/05 03:53:14;;;;;;;27.7;16.75;;;;;;;-4.93;48.0791;95214.95;;;;
2022/03/05 03:54:15;;;;;;;27.7;16.75;;;;;;;-4.93;48.0791;95214.95;;;;
2022/03/05 03:55:15;;;;;;;27.7;16.75;;;;;;;-4.93;48.0791;95214.95;;;;
2022/03/05 03:56:18;;;;;;;27.7;16.75;;;;;;;-4.93;48.0791;95214.95;;;;
2022/03/05 03:57:18;;;;;;;27.7;16.75;;;;;;;-4.93;48.0791;95214.95;;;;
2022/03/05 03:58:19;;;;;;;27.7;16.75;;;;;;;-4.93;48.0791;95214.95;;;;
2022/03/05 03:59:20;;;;;;;27.7;16.75;;;;;;;-4.93;48.0791;95214.95;;;;
2022/03/05 04:00:22;;;;;;;27.7;16.75;;;;;;;-4.93;48.0791;95214.95;;;;
2022/03/05 04:01:23;;;;;;;27.7;16.75;;;;;;;-4.93;48.0791;95214.95;;;;
2022/03/05 04:02:23;;;;;;;27.7;16.75;;;;;;;-4.93;48.0791;95214.95;;;;
2022/03/05 04:03:24;;;;;;;27.7;16.75;;;;;;;-4.93;48.0791;95214.95;;;;
2022/03/05 04:04:24;;;;;;;26.25;16.7;;;;;;;-5.13;48.42969;95231.77;;;;
2022/03/05 04:05:25;;;;;;;26.25;16.7;;;;;;;-5.13;48.42969;95231.77;;;;
2022/03/05 04:08:41;;;;;;;26.25;16.7;;;;;;;-5.13;48.42969;95231.77;;;;
2022/03/05 04:09:41;;;;;;;26.25;16.7;;;;;;;-5.13;48.42969;95231.77;;;;
2022/03/05 04:10:42;;;;;;;26.25;16.7;;;;;;;-5.13;48.42969;95231.77;;;;
2022/03/05 04:11:43;;;;;;;26.25;16.7;;;;;;;-5.13;48.42969;95231.77;;;;
2022/03/05 04:12:43;;;;;;;26.25;16.7;;;;;;;-5.13;48.42969;95231.77;;;;
2022/03/05 04:13:45;;;;;;;26.25;16.7;;;;;;;-5.13;48.42969;95231.77;;;;
2022/03/05 04:14:46;;;;;;;26.8;17.2;;;;;;;-5.34;48.80176;95228.83;;;;
2022/03/05 04:15:47;;;;;;;26.8;17.2;;;;;;;-5.34;48.80176;95228.83;;;;
2022/03/05 04:16:47;;;;;;;26.8;17.2;;;;;;;-5.34;48.80176;95228.83;;;;
2022/03/05 04:17:48;;;;;;;26.8;17.2;;;;;;;-5.34;48.80176;95228.83;;;;
2022/03/05 04:18:49;;;;;;;26.8;17.2;;;;;;;-5.34;48.80176;95228.83;;;;
2022/03/05 04:19:49;;;;;;;26.8;17.2;;;;;;;-5.34;48.80176;95228.83;;;;
2022/03/05 04:20:50;;;;;;;26.8;17.2;;;;;;;-5.34;48.80176;95228.83;;;;
2022/03/05 04:21:50;;;;;;;26.8;17.2;;;;;;;-5.34;48.80176;95228.83;;;;
2022/03/05 04:22:51;;;;;;;26.8;17.2;;;;;;;-5.34;48.80176;95228.83;;;;
2022/03/05 04:23:51;;;;;;;26.8;17.2;;;;;;;-5.34;48.80176;95228.83;;;;
2022/03/05 04:24:52;;;;;;;26.8;17.2;;;;;;;-5.34;48.80176;95228.83;;;;
2022/03/05 04:25:52;;;;;;;26.8;17.2;;;;;;;-5.34;48.80176;95228.83;;;;
2022/03/05 04:26:53;;;;;;;26.8;17.2;;;;;;;-5.34;48.80176;95228.83;;;;
2022/03/05 04:27:53;;;;;;;26.8;17.2;;;;;;;-5.34;48.80176;95228.83;;;;
2022/03/05 04:28:54;;;;;;;26.8;17.2;;;;;;;-5.34;48.80176;95228.83;;;;
2022/03/05 04:29:54;;;;;;;26.8;17.2;;;;;;;-5.34;48.80176;95228.83;;;;
2022/03/05 04:30:55;;;;;;;26.8;17.2;;;;;;;-5.34;48.80176;95228.83;;;;
2022/03/05 04:31:55;;;;;;;26.8;17.2;;;;;;;-5.34;48.80176;95228.83;;;;
2022/03/05 04:32:55;;;;;;;26.8;17.2;;;;;;;-5.34;48.80176;95228.83;;;;
2022/03/05 04:33:56;;;;;;;26.8;17.2;;;;;;;-5.34;48.80176;95228.83;;;;
2022/03/05 04:34:57;;;;;;;26.8;17.2;;;;;;;-5.34;48.80176;95228.83;;;;
2022/03/05 04:35:58;;;;;;;30.00001;18.55;;;;;;;-5.5;49.37305;95245.74;;;;
2022/03/05 04:36:58;;;;;;;30.00001;18.55;;;;;;;-5.5;49.37305;95245.74;;;;
2022/03/05 04:37:59;;;;;;;30.00001;18.55;;;;;;;-5.5;49.37305;95245.74;;;;
2022/03/05 04:38:59;;;;;;;30.00001;18.55;;;;;;;-5.5;49.37305;95245.74;;;;
2022/03/05 04:40:00;;;;;;;30.00001;18.55;;;;;;;-5.5;49.37305;95245.74;;;;
2022/03/05 04:41:01;;;;;;;30.00001;18.55;;;;;;;-5.5;49.37305;95245.74;;;;
2022/03/05 04:42:01;;;;;;;30.00001;18.55;;;;;;;-5.5;49.37305;95245.74;;;;
2022/03/05 04:43:02;;;;;;;30.00001;18.55;;;;;;;-5.5;49.37305;95245.74;;;;
2022/03/05 04:44:03;;;;;;;30.00001;18.55;;;;;;;-5.5;49.37305;95245.74;;;;
2022/03/05 04:45:08;;;;;;;30.00001;18.55;;;;;;;-5.5;49.37305;95245.74;;;;
2022/03/05 04:46:09;;;;;;;30.00001;18.55;;;;;;;-5.5;49.37305;95245.74;;;;
2022/03/05 04:47:10;;;;;;;27.4;17.35;;;;;;;-5.68;49.70605;95242.1;;;;
2022/03/05 04:48:10;;;;;;;27.4;17.35;;;;;;;-5.68;49.70605;95242.1;;;;
2022/03/05 04:49:11;;;;;;;27.4;17.35;;;;;;;-5.68;49.70605;95242.1;;;;
2022/03/05 04:50:12;;;;;;;27.4;17.35;;;;;;;-5.68;49.70605;95242.1;;;;
2022/03/05 04:51:12;;;;;;;27.4;17.35;;;;;;;-5.68;49.70605;95242.1;;;;
2022/03/05 04:52:13;;;;;;;27.4;17.35;;;;;;;-5.68;49.70605;95242.1;;;;
2022/03/05 04:53:13;;;;;;;27.4;17.35;;;;;;;-5.68;49.70605;95242.1;;;;
2022/03/05 04:54:14;;;;;;;27.4;17.35;;;;;;;-5.68;49.70605;95242.1;;;;
2022/03/05 04:55:14;;;;;;;27.4;17.35;;;;;;;-5.68;49.70605;95242.1;;;;
2022/03/05 04:56:15;;;;;;;27.4;17.35;;;;;;;-5.68;49.70605;95242.1;;;;
2022/03/05 04:57:15;;;;;;;27.55;17.45;;;;;;;-5.79;50.08691;95248.8;;;;
2022/03/05 04:58:16;;;;;;;27.55;17.45;;;;;;;-5.79;50.08691;95248.8;;;;
2022/03/05 04:59:18;;;;;;;27.55;17.45;;;;;;;-5.79;50.08691;95248.8;;;;
2022/03/05 05:00:18;;;;;;;27.55;17.45;;;;;;;-5.79;50.08691;95248.8;;;;
2022/03/05 05:01:19;;;;;;;27.55;17.45;;;;;;;-5.79;50.08691;95248.8;;;;
2022/03/05 05:02:19;;;;;;;27.55;17.45;;;;;;;-5.79;50.08691;95248.8;;;;
2022/03/05 05:03:20;;;;;;;27.55;17.45;;;;;;;-5.79;50.08691;95248.8;;;;
2022/03/05 05:04:20;;;;;;;27.55;17.45;;;;;;;-5.79;50.08691;95248.8;;;;
2022/03/05 05:05:21;;;;;;;27.55;17.45;;;;;;;-5.79;50.08691;95248.8;;;;
2022/03/05 05:06:21;;;;;;;27.55;17.45;;;;;;;-5.79;50.08691;95248.8;;;;
2022/03/05 05:07:22;;;;;;;27.55;17.45;;;;;;;-5.79;50.08691;95248.8;;;;
2022/03/05 05:08:22;;;;;;;31.6;18.25;;;;;;;-5.83;50.43359;95243.59;;;;
2022/03/05 05:09:23;;;;;;;31.6;18.25;;;;;;;-5.83;50.43359;95243.59;;;;
2022/03/05 05:10:23;;;;;;;31.6;18.25;;;;;;;-5.83;50.43359;95243.59;;;;
2022/03/05 05:11:24;;;;;;;31.6;18.25;;;;;;;-5.83;50.43359;95243.59;;;;
2022/03/05 05:12:24;;;;;;;31.6;18.25;;;;;;;-5.83;50.43359;95243.59;;;;
2022/03/05 05:13:26;;;;;;;31.6;18.25;;;;;;;-5.83;50.43359;95243.59;;;;
2022/03/05 05:14:26;;;;;;;31.6;18.25;;;;;;;-5.83;50.43359;95243.59;;;;
2022/03/05 05:15:27;;;;;;;31.6;18.25;;;;;;;-5.83;50.43359;95243.59;;;;
2022/03/05 05:16:27;;;;;;;31.6;18.25;;;;;;;-5.83;50.43359;95243.59;;;;
2022/03/05 05:17:28;;;;;;;31.6;18.25;;;;;;;-5.83;50.43359;95243.59;;;;
2022/03/05 05:18:34;;;;;;;30.4;18.15;;;;;;;-5.86;50.70996;95245.19;;;;
2022/03/05 05:19:34;;;;;;;30.4;18.15;;;;;;;-5.86;50.70996;95245.19;;;;
2022/03/05 05:20:35;;;;;;;30.4;18.15;;;;;;;-5.86;50.70996;95245.19;;;;
2022/03/05 05:21:35;;;;;;;30.4;18.15;;;;;;;-5.86;50.70996;95245.19;;;;
2022/03/05 05:22:36;;;;;;;30.4;18.15;;;;;;;-5.86;50.70996;95245.19;;;;
2022/03/05 05:23:37;;;;;;;30.4;18.15;;;;;;;-5.86;50.70996;95245.19;;;;
2022/03/05 05:24:38;;;;;;;30.4;18.15;;;;;;;-5.86;50.70996;95245.19;;;;
2022/03/05 05:25:39;;;;;;;30.4;18.15;;;;;;;-5.86;50.70996;95245.19;;;;
2022/03/05 05:26:39;;;;;;;30.4;18.15;;;;;;;-5.86;50.70996;95245.19;;;;
2022/03/05 05:27:40;;;;;;;30.4;18.15;;;;;;;-5.86;50.70996;95245.19;;;;
2022/03/05 05:28:41;;;;;;;30.4;18.15;;;;;;;-5.86;50.70996;95245.19;;;;
2022/03/05 05:29:41;;;;;;;28.85;18.2;;;;;;;-5.89;50.95508;95255.91;;;;
2022/03/05 05:30:42;;;;;;;28.85;18.2;;;;;;;-5.89;50.95508;95255.91;;;;
2022/03/05 05:31:42;;;;;;;28.85;18.2;;;;;;;-5.89;50.95508;95255.91;;;;
2022/03/05 05:32:43;;;;;;;28.85;18.2;;;;;;;-5.89;50.95508;95255.91;;;;
2022/03/05 05:33:44;;;;;;;28.85;18.2;;;;;;;-5.89;50.95508;95255.91;;;;
2022/03/05 05:34:45;;;;;;;28.85;18.2;;;;;;;-5.89;50.95508;95255.91;;;;
2022/03/05 05:35:45;;;;;;;28.85;18.2;;;;;;;-5.89;50.95508;95255.91;;;;
2022/03/05 05:36:46;;;;;;;28.85;18.2;;;;;;;-5.89;50.95508;95255.91;;;;
2022/03/05 05:37:46;;;;;;;28.85;18.2;;;;;;;-5.89;50.95508;95255.91;;;;
2022/03/05 05:38:47;;;;;;;28.85;18.2;;;;;;;-5.89;50.95508;95255.91;;;;
2022/03/05 05:39:47;;;;;;;28.85;18.2;;;;;;;-5.89;50.95508;95255.91;;;;
2022/03/05 05:40:48;;;;;;;32.24999;17.8;;;;;;;-5.87;51.2793;95255.29;;;;
2022/03/05 05:41:48;;;;;;;32.24999;17.8;;;;;;;-5.87;51.2793;95255.29;;;;
2022/03/05 05:42:49;;;;;;;32.24999;17.8;;;;;;;-5.87;51.2793;95255.29;;;;